KMIE/MIE METAR and TAF weather

Enter ICAO airport designator
Station Type Date Time Source
KMIE METAR 2020/07/11 23:53 UTC NOAA

KMIE 112353Z 28005KT 10SM FEW090 24/18 A2985 RMK AO2 SLP098 60000 T02390178 10306 20239 55013


Station Type Date Time Source
KMIE Decoded METAR 2020/07/11 23:53 UTC NOAA

MUNCIE DELAWARE JOHNSON, IN, United States (KMIE) 40-14N 85-24W 285M
Jul 11, 2020 - 07:53 PM EDT / 2020.07.11 2353 UTC
Wind: from the W (280 degrees) at 6 MPH (5 KT):0
Visibility: 10 mile(s):0
Sky conditions: mostly clear
Temperature: 75.0 F (23.9 C)
Dew Point: 64.0 F (17.8 C)
Relative Humidity: 68%
Pressure (altimeter): 29.85 in. Hg (1010 hPa)
Pressure tendency: 0.04 inches (1.3 hPa) lower than three hours ago
ob: KMIE 112353Z 28005KT 10SM FEW090 24/18 A2985 RMK AO2 SLP098 60000 T02390178 10306 20239 55013
cycle: 0

Station Type Date Time Source
KMIE TAF UTC NOAA

Error!

Example: see airport list